createdAt,value
2017-09-12T00:01:46.411Z,99.90
2017-09-12T00:04:14.175Z,99.90
2017-09-12T00:06:41.667Z,99.90
2017-09-12T00:09:09.238Z,99.90
2017-09-12T00:11:36.747Z,99.90
2017-09-12T00:14:04.338Z,99.90
2017-09-12T00:16:31.895Z,99.90
2017-09-12T00:18:59.546Z,99.90
2017-09-12T00:21:27.055Z,99.90
2017-09-12T00:23:54.739Z,99.90
2017-09-12T00:26:22.253Z,99.90
2017-09-12T00:28:49.782Z,99.90
2017-09-12T00:31:17.365Z,99.90
2017-09-12T00:33:44.978Z,99.90
2017-09-12T00:36:13.030Z,99.90
2017-09-12T00:38:40.603Z,99.90
2017-09-12T00:41:49.679Z,99.90
2017-09-12T00:44:17.259Z,99.90
2017-09-12T00:46:44.786Z,99.90
2017-09-12T00:49:12.298Z,99.90
2017-09-12T00:51:40.154Z,99.90
2017-09-12T00:54:07.899Z,99.90
2017-09-12T00:56:35.422Z,99.90
2017-09-12T00:59:03.369Z,99.90
2017-09-12T01:01:30.868Z,99.90
2017-09-12T01:03:58.886Z,99.90
2017-09-12T01:06:26.483Z,99.90
2017-09-12T01:08:53.983Z,99.90
2017-09-12T01:11:21.497Z,99.90
2017-09-12T01:13:49.771Z,99.90
2017-09-12T01:16:17.339Z,99.90
2017-09-12T01:18:45.524Z,99.90
2017-09-12T01:21:13.018Z,99.90
2017-09-12T01:23:40.523Z,99.90
2017-09-12T01:26:08.603Z,99.90
2017-09-12T01:28:36.104Z,99.90
2017-09-12T01:31:03.639Z,99.90
2017-09-12T01:33:31.411Z,99.90
2017-09-12T01:35:59.734Z,99.90
2017-09-12T01:38:27.874Z,99.90
2017-09-12T01:40:55.466Z,99.90
2017-09-12T01:43:22.987Z,99.90
2017-09-12T01:45:50.494Z,99.90
2017-09-12T01:48:18.926Z,99.90
2017-09-12T01:50:46.468Z,99.90
2017-09-12T01:53:14.043Z,99.90
2017-09-12T01:55:41.587Z,99.90
2017-09-12T01:58:09.350Z,99.90
2017-09-12T02:00:36.900Z,99.90
2017-09-12T02:03:04.434Z,99.90
2017-09-12T02:05:32.080Z,99.90
2017-09-12T02:07:59.594Z,99.90
2017-09-12T02:10:27.566Z,99.90
2017-09-12T02:12:55.090Z,99.90
2017-09-12T02:15:22.646Z,99.90
2017-09-12T02:17:50.435Z,99.90
2017-09-12T02:20:17.943Z,99.90
2017-09-12T02:22:45.506Z,99.90
2017-09-12T02:25:13.076Z,99.90
2017-09-12T02:27:40.629Z,99.90
2017-09-12T02:30:08.151Z,99.90
2017-09-12T02:32:35.722Z,99.90
2017-09-12T02:35:04.019Z,99.90
2017-09-12T02:37:31.517Z,99.90
2017-09-12T02:39:59.353Z,99.90
2017-09-12T02:42:26.858Z,99.90
2017-09-12T02:44:54.366Z,99.90
2017-09-12T02:47:22.563Z,99.90
2017-09-12T02:49:50.073Z,99.90
2017-09-12T02:52:18.326Z,99.90
2017-09-12T02:54:46.570Z,99.90
2017-09-12T02:57:14.070Z,99.90
2017-09-12T02:59:41.576Z,99.90
2017-09-12T03:02:09.358Z,99.90
2017-09-12T03:04:36.855Z,99.90
2017-09-12T03:07:04.359Z,99.90
2017-09-12T03:09:32.038Z,99.90
2017-09-12T03:11:59.570Z,99.90
2017-09-12T03:14:27.829Z,99.90
2017-09-12T03:16:56.138Z,99.90
2017-09-12T03:19:23.713Z,99.90
2017-09-12T03:21:51.227Z,99.90
2017-09-12T03:24:19.115Z,99.90
2017-09-12T03:26:46.647Z,99.90
2017-09-12T03:29:14.179Z,99.90
2017-09-12T03:31:42.111Z,99.90
2017-09-12T03:34:09.619Z,99.90
2017-09-12T03:36:37.135Z,99.90
2017-09-12T03:39:04.683Z,99.90
2017-09-12T03:41:32.183Z,99.90
2017-09-12T03:43:59.745Z,99.90
2017-09-12T03:46:27.307Z,99.90
2017-09-12T03:48:54.830Z,99.90
2017-09-12T03:51:22.375Z,99.90
2017-09-12T03:53:49.937Z,99.90
2017-09-12T03:56:17.543Z,99.90
2017-09-12T03:58:45.054Z,99.90
2017-09-12T04:01:12.987Z,99.90
2017-09-12T04:03:41.263Z,99.90
2017-09-12T04:06:09.535Z,99.90
2017-09-12T04:08:37.834Z,99.90
2017-09-12T04:11:05.372Z,99.90
2017-09-12T04:13:32.947Z,99.90
2017-09-12T04:16:01.498Z,99.90
2017-09-12T04:18:29.009Z,99.90
2017-09-12T04:20:56.511Z,99.90
2017-09-12T04:23:24.151Z,99.90
2017-09-12T04:25:51.664Z,99.90
2017-09-12T04:28:19.934Z,99.90
2017-09-12T04:30:48.458Z,99.90
2017-09-12T04:33:15.975Z,99.90
2017-09-12T04:35:43.478Z,99.90
2017-09-12T04:38:11.060Z,99.90
2017-09-12T04:40:38.570Z,99.90
2017-09-12T04:43:06.166Z,99.90
2017-09-12T04:45:33.761Z,99.90
2017-09-12T04:48:02.102Z,99.90
2017-09-12T04:50:29.603Z,99.90
2017-09-12T04:52:57.609Z,99.90
2017-09-12T04:55:25.373Z,99.90
2017-09-12T04:57:52.910Z,99.90
2017-09-12T05:00:21.222Z,99.90
2017-09-12T05:02:48.736Z,99.90
2017-09-12T05:05:16.235Z,99.90
2017-09-12T05:07:44.074Z,99.90
2017-09-12T05:10:12.019Z,99.90
2017-09-12T05:12:40.143Z,99.90
2017-09-12T05:15:07.639Z,99.90
2017-09-12T05:17:35.439Z,99.90
2017-09-12T05:20:02.945Z,99.90
2017-09-12T05:22:31.175Z,99.90
2017-09-12T05:24:58.783Z,99.90
2017-09-12T05:27:27.701Z,99.90
2017-09-12T05:29:55.735Z,99.90
2017-09-12T05:32:23.635Z,99.90
2017-09-12T05:34:51.462Z,99.90
2017-09-12T05:37:19.019Z,99.90
2017-09-12T05:39:46.607Z,99.90
2017-09-12T05:42:14.111Z,99.90
2017-09-12T05:44:43.272Z,99.90
2017-09-12T05:47:10.810Z,99.90
2017-09-12T05:49:38.398Z,99.90
2017-09-12T05:52:06.445Z,99.90
2017-09-12T05:54:33.955Z,99.90
2017-09-12T05:57:01.460Z,99.90
2017-09-12T05:59:29.003Z,99.90
2017-09-12T06:01:56.512Z,99.90
2017-09-12T06:04:24.218Z,99.90
2017-09-12T06:06:52.525Z,99.90
2017-09-12T06:09:20.036Z,99.90
2017-09-12T06:11:47.724Z,99.90
2017-09-12T06:14:15.300Z,99.90
2017-09-12T06:16:42.811Z,99.90
2017-09-12T06:19:10.338Z,99.90
2017-09-12T06:21:38.050Z,99.90
2017-09-12T06:24:05.564Z,99.90
2017-09-12T06:26:33.271Z,99.90
2017-09-12T06:29:00.824Z,99.90
2017-09-12T06:31:28.402Z,99.90
2017-09-12T06:33:55.907Z,99.90
2017-09-12T06:36:23.751Z,99.90
2017-09-12T06:38:51.448Z,99.90
2017-09-12T06:41:19.056Z,99.90
2017-09-12T06:43:46.655Z,99.90
2017-09-12T06:46:14.693Z,99.90
2017-09-12T06:48:42.191Z,99.90
2017-09-12T06:51:09.748Z,99.90
2017-09-12T06:53:37.295Z,99.90
2017-09-12T06:56:04.805Z,99.90
2017-09-12T06:58:32.738Z,99.90
2017-09-12T07:01:00.850Z,99.90
2017-09-12T07:03:28.439Z,99.90
2017-09-12T07:05:56.443Z,99.90
2017-09-12T07:08:23.947Z,99.90
2017-09-12T07:10:51.440Z,99.90
2017-09-12T07:13:19.003Z,99.90
2017-09-12T07:15:46.527Z,99.90
2017-09-12T07:18:14.035Z,99.90
2017-09-12T07:20:41.831Z,99.90
2017-09-12T07:23:10.049Z,99.90
2017-09-12T07:25:38.350Z,99.90
2017-09-12T07:28:05.935Z,99.90
2017-09-12T07:30:33.944Z,99.90
2017-09-12T07:33:01.463Z,99.90
2017-09-12T07:35:29.007Z,99.90
2017-09-12T07:37:56.535Z,99.90
2017-09-12T07:40:24.069Z,99.90
2017-09-12T07:42:51.584Z,99.90
2017-09-12T07:45:19.645Z,99.90
2017-09-12T07:47:47.169Z,99.90
2017-09-12T07:50:14.693Z,99.90
2017-09-12T07:52:42.570Z,99.90
2017-09-12T07:55:10.080Z,99.90
2017-09-12T07:57:37.835Z,99.90
2017-09-12T08:00:05.480Z,99.90
2017-09-12T08:02:32.976Z,99.90
2017-09-12T08:05:00.483Z,99.90
2017-09-12T08:07:28.055Z,99.90
2017-09-12T08:09:55.615Z,99.90
2017-09-12T08:12:23.115Z,99.90
2017-09-12T08:14:50.881Z,99.90
2017-09-12T08:17:18.389Z,99.90
2017-09-12T08:19:45.892Z,99.90
2017-09-12T08:22:13.443Z,99.90
2017-09-12T08:24:41.118Z,99.90
2017-09-12T08:27:08.633Z,99.90
2017-09-12T08:29:36.187Z,99.90
2017-09-12T08:32:03.796Z,99.90
2017-09-12T08:34:31.313Z,99.90
2017-09-12T08:36:58.864Z,99.90
2017-09-12T08:39:26.411Z,99.90
2017-09-12T08:41:54.699Z,99.90
2017-09-12T08:44:22.242Z,99.90
2017-09-12T08:46:49.772Z,99.90
2017-09-12T08:49:17.376Z,99.90
2017-09-12T08:51:44.931Z,99.90
2017-09-12T08:54:12.430Z,99.90
2017-09-12T08:56:40.044Z,99.90
2017-09-12T08:59:07.612Z,99.90
2017-09-12T09:01:35.115Z,99.90
2017-09-12T09:04:02.610Z,99.90
2017-09-12T09:06:30.931Z,99.90
2017-09-12T09:08:58.434Z,99.90
2017-09-12T09:11:26.087Z,99.90
2017-09-12T09:13:53.639Z,99.90
2017-09-12T09:16:21.140Z,99.90
2017-09-12T09:18:49.399Z,99.90
2017-09-12T09:21:18.049Z,99.90
2017-09-12T09:23:45.539Z,99.90
2017-09-12T09:26:13.031Z,99.90
2017-09-12T09:28:40.555Z,99.90
2017-09-12T09:31:08.051Z,99.90
2017-09-12T09:33:35.605Z,99.90
2017-09-12T09:36:03.479Z,99.90
2017-09-12T09:38:30.980Z,99.30
2017-09-12T09:40:58.535Z,99.20
2017-09-12T09:43:26.124Z,99.90
2017-09-12T09:45:53.692Z,99.90
2017-09-12T09:48:22.042Z,94.30
2017-09-12T09:50:49.606Z,94.40
2017-09-12T09:53:17.099Z,94.20
2017-09-12T09:55:45.224Z,95.60
2017-09-12T09:58:13.103Z,99.90
2017-09-12T10:00:40.606Z,99.90
2017-09-12T10:03:08.102Z,99.90
2017-09-12T10:05:35.995Z,99.90
2017-09-12T10:08:03.496Z,99.90
2017-09-12T10:10:31.052Z,99.90
2017-09-12T10:12:59.007Z,99.90
2017-09-12T10:15:27.372Z,99.90
2017-09-12T10:17:54.879Z,99.90
2017-09-12T10:20:22.623Z,99.90
2017-09-12T10:22:50.127Z,99.90
2017-09-12T10:25:18.078Z,99.90
2017-09-12T10:27:45.639Z,99.90
2017-09-12T10:30:13.248Z,99.90
2017-09-12T10:32:41.514Z,99.90
2017-09-12T10:35:09.081Z,99.90
2017-09-12T10:37:36.655Z,99.90
2017-09-12T10:40:04.919Z,99.90
2017-09-12T10:42:33.483Z,99.90
2017-09-12T10:45:01.016Z,99.90
2017-09-12T10:47:28.516Z,99.90
2017-09-12T10:49:56.827Z,99.90
2017-09-12T10:52:24.514Z,99.90
2017-09-12T10:54:52.492Z,99.90
2017-09-12T10:57:20.072Z,99.90
2017-09-12T10:59:47.718Z,99.90
2017-09-12T11:02:15.234Z,99.90
2017-09-12T11:04:42.783Z,99.80
2017-09-12T11:07:11.064Z,99.90
2017-09-12T11:09:38.570Z,99.90
2017-09-12T11:12:06.360Z,99.90
2017-09-12T11:14:34.047Z,99.90
2017-09-12T11:17:01.619Z,99.90
2017-09-12T11:19:29.917Z,98.80
2017-09-12T11:21:57.689Z,97.20
2017-09-12T11:24:25.191Z,97.30
2017-09-12T11:26:53.044Z,96.40
2017-09-12T11:29:20.627Z,99.90
2017-09-12T11:31:49.173Z,99.90
2017-09-12T11:34:16.703Z,99.90
2017-09-12T11:36:44.280Z,99.90
2017-09-12T11:39:11.889Z,99.90
2017-09-12T11:41:40.242Z,99.90
2017-09-12T11:44:07.851Z,99.90
2017-09-12T11:46:35.354Z,99.90
2017-09-12T11:49:03.255Z,99.90
2017-09-12T11:51:30.779Z,99.90
2017-09-12T11:53:58.308Z,99.90
2017-09-12T11:56:26.282Z,99.90
2017-09-12T11:58:53.779Z,99.90
2017-09-12T12:01:21.313Z,99.90
2017-09-12T12:03:49.120Z,99.90
2017-09-12T12:06:17.562Z,99.90
2017-09-12T12:08:45.223Z,99.90
2017-09-12T12:11:13.103Z,99.90
2017-09-12T12:13:40.619Z,99.90
2017-09-12T12:16:08.118Z,99.90
2017-09-12T12:18:35.682Z,99.90
2017-09-12T12:21:03.227Z,99.90
2017-09-12T12:23:30.727Z,99.90
2017-09-12T12:25:58.287Z,99.90
2017-09-12T12:28:26.551Z,99.90
2017-09-12T12:30:54.077Z,99.90
2017-09-12T12:33:21.720Z,99.90
2017-09-12T12:35:49.219Z,99.90
2017-09-12T12:38:16.756Z,99.90
2017-09-12T12:40:44.308Z,99.90
2017-09-12T12:43:11.804Z,99.90
2017-09-12T12:45:39.455Z,99.90
2017-09-12T12:48:07.003Z,99.90
2017-09-12T12:50:34.532Z,99.90
2017-09-12T12:53:02.068Z,99.90
2017-09-12T12:55:30.711Z,99.90
2017-09-12T12:57:58.211Z,99.90
2017-09-12T13:00:25.795Z,99.90
2017-09-12T13:02:53.383Z,99.90
2017-09-12T13:05:20.892Z,99.90
2017-09-12T13:07:54.865Z,99.90
2017-09-12T13:10:22.630Z,99.90
2017-09-12T13:12:50.239Z,99.90
2017-09-12T13:15:17.784Z,99.90
2017-09-12T13:17:45.438Z,99.90
2017-09-12T13:20:12.942Z,99.90
2017-09-12T13:22:40.487Z,99.90
2017-09-12T13:25:08.014Z,99.90
2017-09-12T13:27:35.602Z,99.90
2017-09-12T13:30:03.206Z,98.20
2017-09-12T13:32:30.706Z,96.80
2017-09-12T13:34:59.027Z,93.50
2017-09-12T13:37:26.798Z,93.60
2017-09-12T13:39:54.300Z,92.30
2017-09-12T13:42:22.578Z,93.80
2017-09-12T13:44:50.126Z,93.70
2017-09-12T13:47:17.618Z,93.70
2017-09-12T13:49:45.878Z,92.50
2017-09-12T13:52:13.819Z,92.60
2017-09-12T13:54:41.395Z,90.50
2017-09-12T13:57:08.895Z,88.30
2017-09-12T13:59:36.791Z,92.60
2017-09-12T14:02:04.296Z,92.60
2017-09-12T14:04:31.863Z,94.00
2017-09-12T14:07:00.251Z,97.70
2017-09-12T14:09:28.271Z,97.60
2017-09-12T14:11:55.773Z,97.70
2017-09-12T14:14:23.800Z,96.70
2017-09-12T14:16:51.389Z,98.60
2017-09-12T14:19:18.898Z,99.90
2017-09-12T14:21:46.459Z,99.90
2017-09-12T14:24:13.966Z,99.90
2017-09-12T14:26:41.459Z,97.70
2017-09-12T14:29:09.256Z,97.90
2017-09-12T14:31:38.295Z,98.20
2017-09-12T14:34:06.211Z,98.70
2017-09-12T14:36:33.755Z,99.30
2017-09-12T14:39:01.265Z,98.40
2017-09-12T14:41:28.777Z,99.40
2017-09-12T14:43:56.812Z,98.80
2017-09-12T14:46:25.067Z,99.50
2017-09-12T14:48:52.695Z,98.80
2017-09-12T14:51:20.303Z,97.70
2017-09-12T14:53:48.335Z,97.90
2017-09-12T14:56:15.935Z,97.10
2017-09-12T14:58:43.531Z,97.10
2017-09-12T15:01:11.038Z,97.40
2017-09-12T15:03:38.552Z,97.60
2017-09-12T15:06:06.311Z,97.80
2017-09-12T15:08:34.260Z,98.10
2017-09-12T15:11:01.765Z,96.70
2017-09-12T15:13:29.360Z,96.90
2017-09-12T15:15:57.026Z,97.60
2017-09-12T15:18:24.606Z,97.20
2017-09-12T15:20:53.390Z,99.90
2017-09-12T15:23:20.909Z,99.90
2017-09-12T15:25:48.408Z,99.60
2017-09-12T15:28:16.744Z,98.30
2017-09-12T15:30:44.519Z,98.30
2017-09-12T15:33:12.030Z,99.20
2017-09-12T15:35:39.696Z,98.90
2017-09-12T15:38:07.262Z,99.60
2017-09-12T15:40:34.843Z,99.40
2017-09-12T15:43:02.763Z,99.90
2017-09-12T15:45:30.271Z,99.90
2017-09-12T15:47:57.771Z,99.90
2017-09-12T15:50:25.517Z,99.90
2017-09-12T15:52:53.015Z,99.90
2017-09-12T15:55:20.520Z,99.90
2017-09-12T15:57:48.069Z,99.90
2017-09-12T16:00:15.572Z,99.90
2017-09-12T16:02:43.112Z,99.90
2017-09-12T16:05:10.660Z,99.90
2017-09-12T16:07:38.189Z,99.90
2017-09-12T16:10:05.964Z,99.90
2017-09-12T16:12:33.568Z,99.90
2017-09-12T16:15:01.063Z,99.90
2017-09-12T16:17:28.589Z,99.90
2017-09-12T16:19:56.316Z,99.90
2017-09-12T16:22:23.947Z,99.90
2017-09-12T16:24:51.587Z,99.90
2017-09-12T16:27:19.499Z,99.90
2017-09-12T16:29:47.297Z,99.90
2017-09-12T16:32:14.847Z,99.90
2017-09-12T16:34:42.786Z,99.90
2017-09-12T16:37:10.398Z,99.90
2017-09-12T16:39:37.974Z,99.90
2017-09-12T16:42:05.895Z,99.90
2017-09-12T16:44:33.710Z,99.90
2017-09-12T16:47:01.391Z,99.90
2017-09-12T16:49:29.002Z,99.90
2017-09-12T16:51:56.550Z,99.90
2017-09-12T16:54:24.080Z,99.90
2017-09-12T16:56:51.761Z,99.90
2017-09-12T16:59:19.355Z,99.90
2017-09-12T17:01:46.899Z,99.90
2017-09-12T17:04:14.516Z,99.90
2017-09-12T17:06:42.503Z,99.90
2017-09-12T17:09:10.101Z,99.90
2017-09-12T17:11:37.600Z,99.90
2017-09-12T17:14:05.311Z,99.90
2017-09-12T17:16:32.837Z,99.90
2017-09-12T17:19:00.544Z,99.90
2017-09-12T17:21:28.220Z,99.90
2017-09-12T17:23:55.939Z,99.90
2017-09-12T17:26:23.671Z,99.90
2017-09-12T17:28:52.503Z,99.90
2017-09-12T17:31:20.287Z,99.90
2017-09-12T17:33:47.815Z,99.90
2017-09-12T17:36:15.616Z,99.90
2017-09-12T17:38:43.142Z,99.90
2017-09-12T17:41:10.687Z,99.90
2017-09-12T17:43:38.283Z,99.90
2017-09-12T17:46:05.779Z,99.90
2017-09-12T17:48:33.374Z,99.90
2017-09-12T17:51:01.349Z,99.90
2017-09-12T17:53:29.035Z,99.90
2017-09-12T17:55:56.715Z,99.90
2017-09-12T17:58:24.296Z,99.90
2017-09-12T18:00:52.870Z,99.90
2017-09-12T18:03:20.594Z,99.90
2017-09-12T18:05:48.371Z,99.90
2017-09-12T18:08:15.895Z,99.90
2017-09-12T18:10:43.564Z,99.90
2017-09-12T18:13:12.095Z,99.90
2017-09-12T18:15:39.755Z,99.90
2017-09-12T18:18:07.355Z,99.90
2017-09-12T18:20:34.931Z,99.90
2017-09-12T18:23:02.429Z,99.90
2017-09-12T18:25:30.300Z,99.90
2017-09-12T18:27:57.908Z,99.90
2017-09-12T18:30:25.527Z,99.90
2017-09-12T18:32:53.145Z,99.90
2017-09-12T18:35:20.976Z,99.90
2017-09-12T18:37:48.815Z,99.90
2017-09-12T18:40:16.313Z,99.90
2017-09-12T18:42:43.913Z,99.90
2017-09-12T18:45:11.649Z,99.90
2017-09-12T18:47:39.182Z,99.90
2017-09-12T18:50:07.447Z,99.90
2017-09-12T18:52:35.783Z,99.90
2017-09-12T18:55:03.286Z,99.90
2017-09-12T18:57:30.871Z,99.90
2017-09-12T18:59:58.439Z,99.90
2017-09-12T19:02:25.952Z,99.90
2017-09-12T19:04:53.460Z,99.90
2017-09-12T19:07:21.205Z,99.90
2017-09-12T19:09:48.987Z,99.90
2017-09-12T19:12:16.764Z,99.90
2017-09-12T19:14:44.323Z,99.90
2017-09-12T19:17:12.696Z,99.90
2017-09-12T19:19:40.191Z,99.90
2017-09-12T19:22:07.852Z,99.90
2017-09-12T19:24:35.354Z,99.90
2017-09-12T19:27:02.897Z,99.90
2017-09-12T19:29:30.691Z,99.90
2017-09-12T19:31:58.248Z,99.90
2017-09-12T19:34:25.807Z,99.90
2017-09-12T19:36:53.484Z,99.90
2017-09-12T19:39:21.023Z,99.90
2017-09-12T19:41:48.682Z,99.90
2017-09-12T19:44:17.180Z,99.90
2017-09-12T19:46:44.993Z,99.90
2017-09-12T19:49:12.606Z,99.90
2017-09-12T19:51:40.210Z,99.90
2017-09-12T19:54:07.722Z,99.90
2017-09-12T19:56:35.278Z,99.90
2017-09-12T19:59:03.179Z,99.90
2017-09-12T20:01:31.075Z,99.90
2017-09-12T20:04:00.139Z,99.90
2017-09-12T20:06:27.747Z,99.90
2017-09-12T20:08:55.751Z,99.90
2017-09-12T20:11:23.315Z,99.90
2017-09-12T20:13:50.867Z,99.90
2017-09-12T20:16:18.440Z,99.90
2017-09-12T20:18:46.264Z,99.90
2017-09-12T21:43:11.978Z,99.90
2017-09-12T21:45:39.552Z,99.90
2017-09-12T21:48:07.060Z,99.90
2017-09-12T21:50:35.443Z,99.90
2017-09-12T21:53:02.983Z,99.90
2017-09-12T21:55:30.535Z,99.90
2017-09-12T21:57:58.099Z,99.90
2017-09-12T22:00:25.595Z,99.90
2017-09-12T22:02:53.514Z,99.90
2017-09-12T22:05:21.303Z,99.90
2017-09-12T22:07:49.630Z,99.90
2017-09-12T22:10:17.209Z,99.90
2017-09-12T22:12:44.762Z,99.90
2017-09-12T22:15:12.260Z,99.90
2017-09-12T22:17:39.763Z,99.90
2017-09-12T22:20:07.380Z,99.90
2017-09-12T22:22:34.923Z,99.90
2017-09-12T22:25:03.112Z,99.90
2017-09-12T22:27:30.700Z,99.90
2017-09-12T22:29:58.217Z,99.90
2017-09-12T22:32:25.728Z,99.90
2017-09-12T22:34:53.445Z,99.90
2017-09-12T22:37:21.770Z,99.90
2017-09-12T22:39:49.295Z,99.90
2017-09-12T22:42:16.849Z,99.90
2017-09-12T22:44:45.131Z,99.90
2017-09-12T22:47:13.396Z,99.90
2017-09-12T22:49:41.847Z,99.90
2017-09-12T22:52:09.452Z,99.90
2017-09-12T22:54:37.020Z,99.90
2017-09-12T22:57:04.998Z,99.90
2017-09-12T22:59:32.527Z,99.90
2017-09-12T23:02:00.809Z,99.90
2017-09-12T23:04:30.339Z,99.90
2017-09-12T23:06:57.835Z,99.90
2017-09-12T23:09:25.337Z,99.90
2017-09-12T23:11:53.031Z,99.90
2017-09-12T23:14:20.554Z,99.90
2017-09-12T23:16:48.876Z,99.90
2017-09-12T23:19:16.434Z,99.90
2017-09-12T23:21:43.939Z,99.90
2017-09-12T23:24:11.439Z,99.90
2017-09-12T23:26:39.071Z,99.90
2017-09-12T23:29:07.350Z,99.90
2017-09-12T23:31:35.670Z,99.90
2017-09-12T23:34:03.575Z,99.90
2017-09-12T23:36:31.082Z,99.90
2017-09-12T23:38:58.582Z,99.90
2017-09-12T23:41:26.588Z,99.90
2017-09-12T23:43:54.163Z,99.90
2017-09-12T23:46:21.748Z,99.90
2017-09-12T23:48:49.294Z,99.90
2017-09-12T23:51:16.815Z,99.90
2017-09-12T23:53:44.360Z,99.90
2017-09-12T23:56:11.907Z,99.90
2017-09-12T23:58:39.415Z,99.90
